Brady Lake, Ohio
Current Conditions -  °F | °C
As of 4:21 PM on Wednesday 26 Nov 2014 (Local Time) from KPOV Reporting Station
Overcast Overcast  
Wind Chill: 32°   Ceiling: 3300
Heat Index: 36°   Visibility: 10mi
Dew Point: 24°   Wind: 5mph
Humidity: 62%   Direction: 330°NNW
Pressure: 30.01"   Gusts: NA
Location:  41.16°N, 81.32°W
Report Text: KPOV 262121Z AUTO 33004KT 10SM OVC033 02/M04 A3001 RMK AO2 T00221045
Loading
Personal Weather Stations






























Interactive Weather Map New forecast layout! Learn more

10-Day Weather Forecast

Advertisements
Track Severe Weather on mobile